RPT181 KGSP-KMIA
Flight info
| Callsign | RPT181 |
|---|---|
| Flight time | 1h 28m |
| Altitude | 37000 |
| Route | SOTHH QUIWE Q93 GURGE/N0457F360 Q93 DEBRL CSTAL3 |
| Aircraft | B738/M-SDE2E3GHIJ4J7P2RW/LB1D1 |
Departure
| Time | 2026-04-19 03:11 |
|---|---|
| Airport | Greenville-Spartanburg International Airport (KGSP) |
Arrival
| Time | 2026-04-19 04:40 |
|---|---|
| Airport | Miami International Airport (KMIA) |
| Time | Latitude | Longitude | Altitude | Speed | Heading |
|---|---|---|---|---|---|
| 2026-04-19 02:21 | 34.88927 | -82.21770 | 952 ft | 0 kts | 329° |
| 2026-04-19 02:58 | 34.88921 | -82.21765 | 952 ft | 3 kts | 336° |
| 2026-04-19 02:58 | 34.88904 | -82.21762 | 949 ft | 3 kts | 13° |
| 2026-04-19 02:58 | 34.88885 | -82.21768 | 949 ft | 3 kts | 20° |
| 2026-04-19 02:59 | 34.88867 | -82.21778 | 949 ft | 3 kts | 30° |
| 2026-04-19 02:59 | 34.88850 | -82.21791 | 944 ft | 3 kts | 37° |
| 2026-04-19 02:59 | 34.88837 | -82.21803 | 950 ft | 1 kts | 38° |
| 2026-04-19 02:59 | 34.88836 | -82.21804 | 950 ft | 1 kts | 38° |
| 2026-04-19 03:02 | 34.88837 | -82.21804 | 950 ft | 1 kts | 34° |
| 2026-04-19 03:02 | 34.88849 | -82.21807 | 956 ft | 3 kts | 326° |
| 2026-04-19 03:02 | 34.88846 | -82.21828 | 949 ft | 4 kts | 239° |
| 2026-04-19 03:02 | 34.88839 | -82.21875 | 950 ft | 7 kts | 275° |
| 2026-04-19 03:03 | 34.88855 | -82.21922 | 950 ft | 6 kts | 298° |
| 2026-04-19 03:03 | 34.88884 | -82.21959 | 952 ft | 6 kts | 327° |
| 2026-04-19 03:03 | 34.88924 | -82.21980 | 951 ft | 8 kts | 343° |
| 2026-04-19 03:03 | 34.88977 | -82.21997 | 955 ft | 8 kts | 343° |
| 2026-04-19 03:04 | 34.89021 | -82.22035 | 956 ft | 8 kts | 335° |
| 2026-04-19 03:04 | 34.89082 | -82.22021 | 956 ft | 11 kts | 28° |
| 2026-04-19 03:04 | 34.89158 | -82.21963 | 959 ft | 15 kts | 32° |
| 2026-04-19 03:04 | 34.89253 | -82.21892 | 959 ft | 16 kts | 32° |
| 2026-04-19 03:05 | 34.89348 | -82.21819 | 961 ft | 16 kts | 32° |
| 2026-04-19 03:05 | 34.89439 | -82.21749 | 961 ft | 15 kts | 33° |
| 2026-04-19 03:05 | 34.89527 | -82.21682 | 963 ft | 15 kts | 32° |
| 2026-04-19 03:05 | 34.89611 | -82.21618 | 963 ft | 14 kts | 32° |
| 2026-04-19 03:06 | 34.89691 | -82.21557 | 959 ft | 13 kts | 32° |
| 2026-04-19 03:06 | 34.89768 | -82.21498 | 962 ft | 13 kts | 32° |
| 2026-04-19 03:06 | 34.89843 | -82.21440 | 961 ft | 13 kts | 32° |
| 2026-04-19 03:06 | 34.89915 | -82.21385 | 961 ft | 12 kts | 32° |
| 2026-04-19 03:07 | 34.89987 | -82.21331 | 959 ft | 12 kts | 32° |
| 2026-04-19 03:07 | 34.90056 | -82.21278 | 963 ft | 12 kts | 32° |
| 2026-04-19 03:07 | 34.90123 | -82.21226 | 967 ft | 11 kts | 32° |
| 2026-04-19 03:07 | 34.90194 | -82.21173 | 965 ft | 13 kts | 32° |
| 2026-04-19 03:08 | 34.90274 | -82.21111 | 964 ft | 14 kts | 32° |
| 2026-04-19 03:08 | 34.90354 | -82.21051 | 969 ft | 13 kts | 32° |
| 2026-04-19 03:08 | 34.90436 | -82.20987 | 968 ft | 15 kts | 32° |
| 2026-04-19 03:08 | 34.90533 | -82.20913 | 964 ft | 17 kts | 32° |
| 2026-04-19 03:09 | 34.90630 | -82.20839 | 969 ft | 16 kts | 32° |
| 2026-04-19 03:09 | 34.90707 | -82.20780 | 965 ft | 11 kts | 32° |
| 2026-04-19 03:09 | 34.90772 | -82.20789 | 967 ft | 10 kts | 307° |
| 2026-04-19 03:09 | 34.90807 | -82.20862 | 966 ft | 10 kts | 301° |
| 2026-04-19 03:10 | 34.90824 | -82.20923 | 966 ft | 6 kts | 243° |
| 2026-04-19 03:10 | 34.90789 | -82.20956 | 966 ft | 6 kts | 213° |
| 2026-04-19 03:10 | 34.90744 | -82.20991 | 970 ft | 15 kts | 212° |
| 2026-04-19 03:10 | 34.90454 | -82.21213 | 970 ft | 83 kts | 212° |
| 2026-04-19 03:11 | 34.89784 | -82.21723 | 962 ft | 141 kts | 212° |
| 2026-04-19 03:11 | 34.88840 | -82.22462 | 1162 ft | 170 kts | 213° |
| 2026-04-19 03:11 | 34.87830 | -82.23250 | 1897 ft | 174 kts | 215° |
| 2026-04-19 03:11 | 34.86795 | -82.23899 | 2923 ft | 165 kts | 202° |
| 2026-04-19 03:12 | 34.85543 | -82.23920 | 3451 ft | 200 kts | 176° |
| 2026-04-19 03:12 | 34.84127 | -82.23589 | 4044 ft | 209 kts | 175° |
| 2026-04-19 03:12 | 34.82672 | -82.23289 | 4480 ft | 227 kts | 176° |
| 2026-04-19 03:12 | 34.81013 | -82.23032 | 4800 ft | 253 kts | 178° |
| 2026-04-19 03:13 | 34.79206 | -82.22711 | 5370 ft | 267 kts | 175° |
| 2026-04-19 03:13 | 34.77358 | -82.22362 | 6148 ft | 271 kts | 175° |
| 2026-04-19 03:13 | 34.75485 | -82.22009 | 6913 ft | 274 kts | 175° |
| 2026-04-19 03:13 | 34.73596 | -82.21649 | 7728 ft | 275 kts | 175° |
| 2026-04-19 03:14 | 34.71699 | -82.21294 | 8461 ft | 278 kts | 175° |
| 2026-04-19 03:14 | 34.69777 | -82.20936 | 9214 ft | 280 kts | 175° |
| 2026-04-19 03:14 | 34.67839 | -82.20577 | 9959 ft | 283 kts | 175° |
| 2026-04-19 03:14 | 34.65861 | -82.20215 | 10417 ft | 297 kts | 175° |
| 2026-04-19 03:15 | 34.63733 | -82.19833 | 10559 ft | 320 kts | 175° |
| 2026-04-19 03:15 | 34.61467 | -82.19424 | 10814 ft | 336 kts | 175° |
| 2026-04-19 03:15 | 34.59128 | -82.18997 | 11343 ft | 343 kts | 175° |
| 2026-04-19 03:15 | 34.56761 | -82.18559 | 12053 ft | 345 kts | 175° |
| 2026-04-19 03:16 | 34.54378 | -82.18122 | 12741 ft | 348 kts | 176° |
| 2026-04-19 03:16 | 34.51973 | -82.17681 | 13390 ft | 352 kts | 176° |
| 2026-04-19 03:16 | 34.49544 | -82.17238 | 14031 ft | 355 kts | 176° |
| 2026-04-19 03:16 | 34.47086 | -82.16791 | 14654 ft | 359 kts | 176° |
| 2026-04-19 03:17 | 34.44606 | -82.16340 | 15260 ft | 363 kts | 176° |
| 2026-04-19 03:17 | 34.42148 | -82.15486 | 15873 ft | 376 kts | 161° |
| 2026-04-19 03:17 | 34.39882 | -82.13826 | 16518 ft | 388 kts | 146° |
| 2026-04-19 03:17 | 34.37957 | -82.11467 | 17115 ft | 399 kts | 136° |
| 2026-04-19 03:18 | 34.36155 | -82.08882 | 17680 ft | 405 kts | 134° |
| 2026-04-19 03:18 | 34.34362 | -82.06233 | 18230 ft | 410 kts | 134° |
| 2026-04-19 03:18 | 34.32548 | -82.03547 | 18736 ft | 414 kts | 134° |
| 2026-04-19 03:18 | 34.30708 | -82.00846 | 19221 ft | 418 kts | 135° |
| 2026-04-19 03:19 | 34.28843 | -81.98134 | 19695 ft | 422 kts | 135° |
| 2026-04-19 03:19 | 34.26945 | -81.95395 | 20177 ft | 426 kts | 135° |
| 2026-04-19 03:19 | 34.25026 | -81.92640 | 20659 ft | 430 kts | 135° |
| 2026-04-19 03:19 | 34.23087 | -81.89865 | 21143 ft | 434 kts | 135° |
| 2026-04-19 03:20 | 34.21127 | -81.87064 | 21623 ft | 438 kts | 135° |
| 2026-04-19 03:20 | 34.19175 | -81.84279 | 22068 ft | 442 kts | 135° |
| 2026-04-19 03:20 | 34.17180 | -81.81432 | 22524 ft | 446 kts | 135° |
| 2026-04-19 03:20 | 34.15167 | -81.78561 | 22981 ft | 450 kts | 135° |
| 2026-04-19 03:21 | 34.13138 | -81.75670 | 23426 ft | 453 kts | 134° |
| 2026-04-19 03:21 | 34.11094 | -81.72759 | 23831 ft | 456 kts | 134° |
| 2026-04-19 03:21 | 34.09037 | -81.69831 | 24241 ft | 458 kts | 134° |
| 2026-04-19 03:21 | 34.06973 | -81.66896 | 24682 ft | 459 kts | 134° |
| 2026-04-19 03:22 | 34.04906 | -81.63959 | 25087 ft | 461 kts | 134° |
| 2026-04-19 03:22 | 34.02829 | -81.61009 | 25477 ft | 463 kts | 135° |
| 2026-04-19 03:22 | 34.00737 | -81.58041 | 25857 ft | 465 kts | 135° |
| 2026-04-19 03:22 | 33.98635 | -81.55067 | 26222 ft | 467 kts | 135° |
| 2026-04-19 03:23 | 33.96302 | -81.52398 | 26536 ft | 461 kts | 150° |
| 2026-04-19 03:23 | 33.93545 | -81.50527 | 26900 ft | 452 kts | 163° |
| 2026-04-19 03:23 | 33.90572 | -81.49434 | 27271 ft | 443 kts | 176° |
| 2026-04-19 03:23 | 33.87521 | -81.49012 | 27645 ft | 441 kts | 180° |
| 2026-04-19 03:24 | 33.84464 | -81.48654 | 27984 ft | 443 kts | 180° |
| 2026-04-19 03:24 | 33.81392 | -81.48290 | 28323 ft | 445 kts | 180° |
| 2026-04-19 03:24 | 33.78307 | -81.47909 | 28665 ft | 447 kts | 180° |
| 2026-04-19 03:24 | 33.75213 | -81.47513 | 28993 ft | 448 kts | 180° |
| 2026-04-19 03:25 | 33.72104 | -81.47103 | 29323 ft | 450 kts | 180° |
| 2026-04-19 03:25 | 33.68977 | -81.46685 | 29621 ft | 452 kts | 180° |
| 2026-04-19 03:25 | 33.65850 | -81.46264 | 29930 ft | 454 kts | 180° |
| 2026-04-19 03:25 | 33.62707 | -81.45840 | 30196 ft | 455 kts | 180° |
| 2026-04-19 03:26 | 33.59590 | -81.45422 | 30401 ft | 458 kts | 180° |
| 2026-04-19 03:26 | 33.56371 | -81.44990 | 30611 ft | 460 kts | 180° |
| 2026-04-19 03:26 | 33.53224 | -81.44569 | 30870 ft | 461 kts | 180° |
| 2026-04-19 03:26 | 33.50040 | -81.44141 | 31160 ft | 461 kts | 180° |
| 2026-04-19 03:27 | 33.46851 | -81.43714 | 31479 ft | 461 kts | 180° |
| 2026-04-19 03:27 | 33.43660 | -81.43287 | 31753 ft | 462 kts | 180° |
| 2026-04-19 03:27 | 33.40464 | -81.42861 | 31998 ft | 463 kts | 180° |
| 2026-04-19 03:27 | 33.37256 | -81.42434 | 32271 ft | 463 kts | 180° |
| 2026-04-19 03:28 | 33.34056 | -81.42007 | 32577 ft | 463 kts | 180° |
| 2026-04-19 03:28 | 33.30849 | -81.41580 | 32843 ft | 464 kts | 181° |
| 2026-04-19 03:28 | 33.27637 | -81.41129 | 33093 ft | 467 kts | 178° |
| 2026-04-19 03:28 | 33.24420 | -81.40428 | 33341 ft | 471 kts | 175° |
| 2026-04-19 03:29 | 33.21210 | -81.39617 | 33608 ft | 472 kts | 174° |
| 2026-04-19 03:29 | 33.17999 | -81.38768 | 33868 ft | 473 kts | 174° |
| 2026-04-19 03:29 | 33.14781 | -81.37912 | 34100 ft | 474 kts | 174° |
| 2026-04-19 03:29 | 33.11557 | -81.37066 | 34299 ft | 475 kts | 175° |
| 2026-04-19 03:30 | 33.08324 | -81.36231 | 34506 ft | 475 kts | 175° |
| 2026-04-19 03:30 | 33.05091 | -81.35407 | 34709 ft | 476 kts | 175° |
| 2026-04-19 03:30 | 33.01852 | -81.34589 | 34925 ft | 476 kts | 176° |
| 2026-04-19 03:30 | 32.98606 | -81.33772 | 35121 ft | 477 kts | 176° |
| 2026-04-19 03:31 | 32.95355 | -81.32955 | 35305 ft | 478 kts | 176° |
| 2026-04-19 03:31 | 32.92093 | -81.32136 | 35506 ft | 479 kts | 176° |
| 2026-04-19 03:31 | 32.88833 | -81.31318 | 35692 ft | 479 kts | 176° |
| 2026-04-19 03:31 | 32.85564 | -81.30497 | 35866 ft | 480 kts | 176° |
| 2026-04-19 03:32 | 32.82294 | -81.29676 | 36050 ft | 481 kts | 176° |
| 2026-04-19 03:32 | 32.79016 | -81.28854 | 36242 ft | 482 kts | 177° |
| 2026-04-19 03:32 | 32.75777 | -81.28042 | 36386 ft | 483 kts | 177° |
| 2026-04-19 03:32 | 32.72439 | -81.27206 | 36530 ft | 484 kts | 177° |
| 2026-04-19 03:33 | 32.69183 | -81.26391 | 36722 ft | 485 kts | 177° |
| 2026-04-19 03:33 | 32.65883 | -81.25565 | 36917 ft | 485 kts | 177° |
| 2026-04-19 03:33 | 32.62579 | -81.24738 | 37074 ft | 486 kts | 178° |
| 2026-04-19 03:33 | 32.59270 | -81.23912 | 37229 ft | 486 kts | 178° |
| 2026-04-19 03:34 | 32.55956 | -81.23085 | 37408 ft | 487 kts | 178° |
| 2026-04-19 03:34 | 32.52640 | -81.22257 | 37578 ft | 487 kts | 178° |
| 2026-04-19 03:34 | 32.49321 | -81.21485 | 37710 ft | 483 kts | 182° |
| 2026-04-19 03:34 | 32.46014 | -81.21172 | 37824 ft | 470 kts | 192° |
| 2026-04-19 03:35 | 32.42768 | -81.21311 | 38001 ft | 466 kts | 194° |
| 2026-04-19 03:35 | 32.37376 | -81.21652 | 38014 ft | 467 kts | 194° |
| 2026-04-19 03:36 | 32.30889 | -81.22035 | 38018 ft | 466 kts | 194° |
| 2026-04-19 03:36 | 32.24426 | -81.22358 | 38024 ft | 464 kts | 193° |
| 2026-04-19 03:37 | 32.17990 | -81.22663 | 38034 ft | 462 kts | 193° |
| 2026-04-19 03:37 | 32.11564 | -81.22969 | 38030 ft | 461 kts | 193° |
| 2026-04-19 03:38 | 32.05148 | -81.23277 | 38034 ft | 462 kts | 193° |
| 2026-04-19 03:38 | 31.98718 | -81.23586 | 38002 ft | 463 kts | 193° |
| 2026-04-19 03:39 | 31.92186 | -81.23360 | 38012 ft | 477 kts | 184° |
| 2026-04-19 03:39 | 31.85553 | -81.22434 | 38001 ft | 481 kts | 183° |
| 2026-04-19 03:40 | 31.78941 | -81.21535 | 38012 ft | 482 kts | 184° |
| 2026-04-19 03:40 | 31.72272 | -81.20704 | 38021 ft | 483 kts | 184° |
| 2026-04-19 03:41 | 31.65576 | -81.19877 | 38023 ft | 484 kts | 184° |
| 2026-04-19 03:41 | 31.58874 | -81.19049 | 38031 ft | 484 kts | 184° |
| 2026-04-19 03:42 | 31.52171 | -81.18221 | 38031 ft | 484 kts | 184° |
| 2026-04-19 03:42 | 31.45471 | -81.17395 | 38034 ft | 483 kts | 184° |
| 2026-04-19 03:43 | 31.38794 | -81.16573 | 38040 ft | 482 kts | 184° |
| 2026-04-19 03:43 | 31.32137 | -81.15761 | 38039 ft | 480 kts | 184° |
| 2026-04-19 03:44 | 31.25495 | -81.14957 | 38042 ft | 479 kts | 184° |
| 2026-04-19 03:44 | 31.18913 | -81.14162 | 38051 ft | 478 kts | 184° |
| 2026-04-19 03:45 | 31.12304 | -81.13363 | 38050 ft | 477 kts | 184° |
| 2026-04-19 03:45 | 31.05709 | -81.12567 | 38050 ft | 476 kts | 184° |
| 2026-04-19 03:46 | 30.99119 | -81.11772 | 38055 ft | 476 kts | 183° |
| 2026-04-19 03:46 | 30.92528 | -81.10979 | 38055 ft | 476 kts | 183° |
| 2026-04-19 03:47 | 30.85933 | -81.10187 | 38062 ft | 476 kts | 183° |
| 2026-04-19 03:47 | 30.79337 | -81.09395 | 38065 ft | 477 kts | 183° |
| 2026-04-19 03:48 | 30.72719 | -81.08601 | 38069 ft | 478 kts | 183° |
| 2026-04-19 03:48 | 30.66100 | -81.07808 | 38070 ft | 479 kts | 183° |
| 2026-04-19 03:49 | 30.59550 | -81.07454 | 38073 ft | 468 kts | 192° |
| 2026-04-19 03:49 | 30.53054 | -81.07878 | 38068 ft | 467 kts | 193° |
| 2026-04-19 03:50 | 30.46553 | -81.08341 | 38069 ft | 469 kts | 192° |
| 2026-04-19 03:50 | 30.40032 | -81.08757 | 38076 ft | 470 kts | 192° |
| 2026-04-19 03:51 | 30.33498 | -81.09147 | 38073 ft | 471 kts | 192° |
| 2026-04-19 03:51 | 30.26947 | -81.09533 | 38072 ft | 471 kts | 192° |
| 2026-04-19 03:52 | 30.20394 | -81.09920 | 38070 ft | 471 kts | 192° |
| 2026-04-19 03:52 | 30.13845 | -81.10308 | 38077 ft | 472 kts | 192° |
| 2026-04-19 03:53 | 30.07289 | -81.10696 | 38079 ft | 472 kts | 192° |
| 2026-04-19 03:53 | 30.00777 | -81.11081 | 38082 ft | 472 kts | 192° |
| 2026-04-19 03:54 | 29.94218 | -81.11468 | 38084 ft | 472 kts | 192° |
| 2026-04-19 03:54 | 29.87662 | -81.11855 | 38082 ft | 472 kts | 192° |
| 2026-04-19 03:55 | 29.81097 | -81.12239 | 38089 ft | 472 kts | 191° |
| 2026-04-19 03:55 | 29.74498 | -81.12342 | 38087 ft | 476 kts | 188° |
| 2026-04-19 03:56 | 29.67873 | -81.12325 | 38080 ft | 475 kts | 188° |
| 2026-04-19 03:56 | 29.61269 | -81.12365 | 38085 ft | 475 kts | 189° |
| 2026-04-19 03:57 | 29.54653 | -81.12457 | 38089 ft | 474 kts | 190° |
| 2026-04-19 03:57 | 29.48069 | -81.12711 | 38092 ft | 473 kts | 191° |
| 2026-04-19 03:58 | 29.41529 | -81.12975 | 38090 ft | 474 kts | 190° |
| 2026-04-19 03:58 | 29.34925 | -81.13214 | 38093 ft | 475 kts | 190° |
| 2026-04-19 03:59 | 29.28290 | -81.13030 | 38065 ft | 492 kts | 172° |
| 2026-04-19 03:59 | 29.21766 | -81.10601 | 38088 ft | 498 kts | 167° |
| 2026-04-19 04:00 | 29.15207 | -81.08008 | 38085 ft | 498 kts | 168° |
| 2026-04-19 04:00 | 29.08628 | -81.05497 | 38087 ft | 498 kts | 168° |
| 2026-04-19 04:01 | 29.02034 | -81.03035 | 38082 ft | 498 kts | 168° |
| 2026-04-19 04:01 | 28.92151 | -80.99357 | 38081 ft | 498 kts | 168° |
| 2026-04-19 04:02 | 28.85554 | -80.96900 | 38077 ft | 498 kts | 168° |
| 2026-04-19 04:02 | 28.78969 | -80.94450 | 38081 ft | 497 kts | 168° |
| 2026-04-19 04:03 | 28.72472 | -80.91818 | 38060 ft | 501 kts | 163° |
| 2026-04-19 04:03 | 28.66044 | -80.88680 | 38053 ft | 502 kts | 161° |
| 2026-04-19 04:04 | 28.59641 | -80.85526 | 38060 ft | 501 kts | 162° |
| 2026-04-19 04:04 | 28.53209 | -80.82447 | 38067 ft | 502 kts | 162° |
| 2026-04-19 04:05 | 28.46764 | -80.79393 | 38060 ft | 502 kts | 162° |
| 2026-04-19 04:05 | 28.40305 | -80.76329 | 38055 ft | 503 kts | 162° |
| 2026-04-19 04:06 | 28.33847 | -80.73269 | 38055 ft | 503 kts | 162° |
| 2026-04-19 04:06 | 28.27377 | -80.70207 | 38057 ft | 503 kts | 162° |
| 2026-04-19 04:07 | 28.20906 | -80.67161 | 38054 ft | 503 kts | 164° |
| 2026-04-19 04:07 | 28.14254 | -80.64921 | 38086 ft | 497 kts | 172° |
| 2026-04-19 04:08 | 28.07587 | -80.63093 | 38080 ft | 496 kts | 172° |
| 2026-04-19 04:08 | 28.00880 | -80.61184 | 38082 ft | 497 kts | 171° |
| 2026-04-19 04:09 | 27.94183 | -80.59190 | 38079 ft | 498 kts | 170° |
| 2026-04-19 04:09 | 27.87491 | -80.57179 | 38077 ft | 498 kts | 170° |
| 2026-04-19 04:10 | 27.84137 | -80.56174 | 37855 ft | 502 kts | 170° |
| 2026-04-19 04:10 | 27.80744 | -80.55162 | 37301 ft | 505 kts | 170° |
| 2026-04-19 04:10 | 27.77354 | -80.54149 | 36753 ft | 502 kts | 170° |
| 2026-04-19 04:10 | 27.73974 | -80.53140 | 36177 ft | 502 kts | 170° |
| 2026-04-19 04:11 | 27.70593 | -80.52132 | 35562 ft | 503 kts | 170° |
| 2026-04-19 04:11 | 27.67208 | -80.51125 | 34911 ft | 504 kts | 170° |
| 2026-04-19 04:11 | 27.63815 | -80.50047 | 34220 ft | 509 kts | 167° |
| 2026-04-19 04:11 | 27.60443 | -80.48778 | 33430 ft | 514 kts | 165° |
| 2026-04-19 04:12 | 27.57071 | -80.47404 | 32706 ft | 515 kts | 163° |
| 2026-04-19 04:12 | 27.53715 | -80.46006 | 32109 ft | 512 kts | 163° |
| 2026-04-19 04:12 | 27.50382 | -80.44628 | 31613 ft | 507 kts | 163° |
| 2026-04-19 04:12 | 27.47079 | -80.43287 | 31114 ft | 502 kts | 163° |
| 2026-04-19 04:13 | 27.43799 | -80.41976 | 30623 ft | 498 kts | 163° |
| 2026-04-19 04:13 | 27.40589 | -80.40707 | 30144 ft | 494 kts | 162° |
| 2026-04-19 04:13 | 27.37360 | -80.39435 | 29563 ft | 489 kts | 162° |
| 2026-04-19 04:13 | 27.34166 | -80.38177 | 29018 ft | 484 kts | 162° |
| 2026-04-19 04:14 | 27.31001 | -80.36931 | 28497 ft | 479 kts | 162° |
| 2026-04-19 04:14 | 27.27872 | -80.35697 | 27990 ft | 473 kts | 162° |
| 2026-04-19 04:14 | 27.24781 | -80.34479 | 27482 ft | 469 kts | 162° |
| 2026-04-19 04:14 | 27.21718 | -80.33272 | 26989 ft | 464 kts | 162° |
| 2026-04-19 04:15 | 27.18683 | -80.32082 | 26504 ft | 459 kts | 162° |
| 2026-04-19 04:15 | 27.15674 | -80.30913 | 26020 ft | 455 kts | 162° |
| 2026-04-19 04:15 | 27.12694 | -80.29758 | 25533 ft | 452 kts | 162° |
| 2026-04-19 04:15 | 27.09736 | -80.28612 | 25040 ft | 448 kts | 162° |
| 2026-04-19 04:16 | 27.06793 | -80.27472 | 24536 ft | 445 kts | 162° |
| 2026-04-19 04:16 | 27.03871 | -80.26340 | 24052 ft | 443 kts | 162° |
| 2026-04-19 04:16 | 27.00972 | -80.25216 | 23539 ft | 440 kts | 162° |
| 2026-04-19 04:16 | 26.98091 | -80.24100 | 22993 ft | 436 kts | 162° |
| 2026-04-19 04:17 | 26.95233 | -80.22993 | 22479 ft | 432 kts | 162° |
| 2026-04-19 04:17 | 26.92408 | -80.21899 | 22002 ft | 427 kts | 162° |
| 2026-04-19 04:17 | 26.89611 | -80.20817 | 21525 ft | 420 kts | 162° |
| 2026-04-19 04:17 | 26.86883 | -80.19762 | 21058 ft | 410 kts | 162° |
| 2026-04-19 04:18 | 26.84243 | -80.18756 | 20617 ft | 404 kts | 162° |
| 2026-04-19 04:18 | 26.81578 | -80.17769 | 20185 ft | 401 kts | 162° |
| 2026-04-19 04:18 | 26.78938 | -80.16799 | 19743 ft | 399 kts | 162° |
| 2026-04-19 04:18 | 26.76310 | -80.15830 | 19284 ft | 397 kts | 162° |
| 2026-04-19 04:19 | 26.73692 | -80.14861 | 18831 ft | 395 kts | 162° |
| 2026-04-19 04:19 | 26.71092 | -80.13902 | 18364 ft | 393 kts | 163° |
| 2026-04-19 04:19 | 26.68473 | -80.13098 | 17863 ft | 386 kts | 167° |
| 2026-04-19 04:19 | 26.65885 | -80.12435 | 17368 ft | 377 kts | 168° |
| 2026-04-19 04:20 | 26.63341 | -80.11785 | 16898 ft | 374 kts | 167° |
| 2026-04-19 04:20 | 26.60816 | -80.11119 | 16448 ft | 372 kts | 167° |
| 2026-04-19 04:20 | 26.58297 | -80.10456 | 16022 ft | 370 kts | 168° |
| 2026-04-19 04:20 | 26.55793 | -80.09829 | 15591 ft | 368 kts | 168° |
| 2026-04-19 04:21 | 26.53297 | -80.09213 | 15161 ft | 367 kts | 168° |
| 2026-04-19 04:21 | 26.50809 | -80.08597 | 14717 ft | 365 kts | 168° |
| 2026-04-19 04:21 | 26.48324 | -80.07979 | 14283 ft | 364 kts | 168° |
| 2026-04-19 04:21 | 26.45850 | -80.07363 | 13847 ft | 363 kts | 168° |
| 2026-04-19 04:22 | 26.44217 | -80.06989 | 13532 ft | 362 kts | 169° |
| 2026-04-19 04:22 | 26.41766 | -80.06476 | 13125 ft | 353 kts | 170° |
| 2026-04-19 04:22 | 26.39389 | -80.05986 | 12994 ft | 342 kts | 169° |
| 2026-04-19 04:22 | 26.36374 | -80.05216 | 12792 ft | 329 kts | 166° |
| 2026-04-19 04:23 | 26.34888 | -80.04795 | 12694 ft | 323 kts | 166° |
| 2026-04-19 04:23 | 26.32740 | -80.04187 | 12562 ft | 314 kts | 166° |
| 2026-04-19 04:23 | 26.30668 | -80.03606 | 12412 ft | 306 kts | 166° |
| 2026-04-19 04:23 | 26.28589 | -80.03033 | 12300 ft | 302 kts | 166° |
| 2026-04-19 04:24 | 26.26582 | -80.02484 | 12196 ft | 301 kts | 167° |
| 2026-04-19 04:24 | 26.24459 | -80.02337 | 12051 ft | 306 kts | 189° |
| 2026-04-19 04:24 | 26.22387 | -80.02786 | 11962 ft | 309 kts | 192° |
| 2026-04-19 04:24 | 26.20279 | -80.03294 | 11823 ft | 309 kts | 192° |
| 2026-04-19 04:25 | 26.18185 | -80.03799 | 11693 ft | 307 kts | 192° |
| 2026-04-19 04:25 | 26.16103 | -80.04292 | 11560 ft | 305 kts | 192° |
| 2026-04-19 04:25 | 26.14030 | -80.04775 | 11427 ft | 304 kts | 192° |
| 2026-04-19 04:25 | 26.11962 | -80.05250 | 11295 ft | 302 kts | 192° |
| 2026-04-19 04:26 | 26.09903 | -80.05721 | 11176 ft | 301 kts | 192° |
| 2026-04-19 04:26 | 26.07858 | -80.06188 | 11051 ft | 300 kts | 192° |
| 2026-04-19 04:26 | 26.05814 | -80.06672 | 10899 ft | 300 kts | 193° |
| 2026-04-19 04:26 | 26.03774 | -80.07200 | 10741 ft | 301 kts | 193° |
| 2026-04-19 04:27 | 26.01732 | -80.07739 | 10583 ft | 301 kts | 193° |
| 2026-04-19 04:27 | 25.99690 | -80.08277 | 10413 ft | 301 kts | 193° |
| 2026-04-19 04:27 | 25.97648 | -80.08811 | 10244 ft | 301 kts | 193° |
| 2026-04-19 04:27 | 25.95623 | -80.09337 | 10065 ft | 296 kts | 193° |
| 2026-04-19 04:28 | 25.93636 | -80.09853 | 9893 ft | 290 kts | 193° |
| 2026-04-19 04:28 | 25.91740 | -80.10435 | 9712 ft | 284 kts | 201° |
| 2026-04-19 04:28 | 25.89946 | -80.11378 | 9473 ft | 281 kts | 207° |
| 2026-04-19 04:28 | 25.88257 | -80.12394 | 9279 ft | 278 kts | 208° |
| 2026-04-19 04:29 | 25.86562 | -80.13425 | 9131 ft | 278 kts | 208° |
| 2026-04-19 04:29 | 25.84861 | -80.14445 | 8991 ft | 278 kts | 208° |
| 2026-04-19 04:29 | 25.83154 | -80.15455 | 8843 ft | 278 kts | 207° |
| 2026-04-19 04:29 | 25.81441 | -80.16457 | 8703 ft | 279 kts | 207° |
| 2026-04-19 04:30 | 25.79724 | -80.17455 | 8568 ft | 279 kts | 207° |
| 2026-04-19 04:30 | 25.77999 | -80.18452 | 8431 ft | 279 kts | 207° |
| 2026-04-19 04:30 | 25.76274 | -80.19447 | 8294 ft | 280 kts | 207° |
| 2026-04-19 04:30 | 25.74546 | -80.20444 | 8158 ft | 280 kts | 207° |
| 2026-04-19 04:31 | 25.72979 | -80.21705 | 7982 ft | 281 kts | 230° |
| 2026-04-19 04:31 | 25.72052 | -80.23612 | 7727 ft | 285 kts | 254° |
| 2026-04-19 04:31 | 25.71582 | -80.25739 | 7453 ft | 283 kts | 258° |
| 2026-04-19 04:31 | 25.71188 | -80.27873 | 7156 ft | 282 kts | 263° |
| 2026-04-19 04:32 | 25.71033 | -80.30032 | 6871 ft | 281 kts | 268° |
| 2026-04-19 04:32 | 25.70967 | -80.32184 | 6576 ft | 277 kts | 269° |
| 2026-04-19 04:32 | 25.70906 | -80.34283 | 6302 ft | 267 kts | 269° |
| 2026-04-19 04:32 | 25.70832 | -80.36286 | 6054 ft | 252 kts | 268° |
| 2026-04-19 04:33 | 25.70752 | -80.38144 | 5938 ft | 231 kts | 268° |
| 2026-04-19 04:33 | 25.70674 | -80.39854 | 5802 ft | 213 kts | 268° |
| 2026-04-19 04:33 | 25.70599 | -80.41441 | 5650 ft | 200 kts | 268° |
| 2026-04-19 04:33 | 25.70527 | -80.42942 | 5464 ft | 192 kts | 268° |
| 2026-04-19 04:34 | 25.70560 | -80.44407 | 5163 ft | 190 kts | 289° |
| 2026-04-19 04:34 | 25.71319 | -80.45545 | 4837 ft | 184 kts | 331° |
| 2026-04-19 04:34 | 25.72476 | -80.46091 | 4513 ft | 178 kts | 342° |
| 2026-04-19 04:34 | 25.73585 | -80.46505 | 4369 ft | 159 kts | 343° |
| 2026-04-19 04:35 | 25.74644 | -80.46895 | 3906 ft | 161 kts | 343° |
| 2026-04-19 04:35 | 25.75700 | -80.47284 | 3562 ft | 159 kts | 344° |
| 2026-04-19 04:35 | 25.76767 | -80.47563 | 3296 ft | 159 kts | 6° |
| 2026-04-19 04:35 | 25.77703 | -80.47028 | 3052 ft | 153 kts | 55° |
| 2026-04-19 04:36 | 25.77960 | -80.45917 | 2847 ft | 151 kts | 90° |
| 2026-04-19 04:36 | 25.78007 | -80.44759 | 2615 ft | 154 kts | 87° |
| 2026-04-19 04:36 | 25.78073 | -80.43579 | 2377 ft | 152 kts | 86° |
| 2026-04-19 04:36 | 25.78139 | -80.42423 | 2128 ft | 150 kts | 87° |
| 2026-04-19 04:37 | 25.78199 | -80.41276 | 1922 ft | 147 kts | 86° |
| 2026-04-19 04:37 | 25.78259 | -80.40129 | 1668 ft | 151 kts | 86° |
| 2026-04-19 04:37 | 25.78317 | -80.38979 | 1426 ft | 146 kts | 87° |
| 2026-04-19 04:37 | 25.78367 | -80.37861 | 1223 ft | 144 kts | 88° |
| 2026-04-19 04:38 | 25.78413 | -80.36744 | 1052 ft | 147 kts | 88° |
| 2026-04-19 04:38 | 25.78453 | -80.35607 | 871 ft | 148 kts | 88° |
| 2026-04-19 04:38 | 25.78501 | -80.34458 | 662 ft | 149 kts | 87° |
| 2026-04-19 04:38 | 25.78546 | -80.33331 | 443 ft | 144 kts | 87° |
| 2026-04-19 04:39 | 25.78589 | -80.32206 | 257 ft | 146 kts | 88° |
| 2026-04-19 04:39 | 25.78632 | -80.31090 | 65 ft | 143 kts | 87° |
| 2026-04-19 04:39 | 25.78676 | -80.30032 | 15 ft | 126 kts | 89° |
| 2026-04-19 04:39 | 25.78708 | -80.29227 | 18 ft | 74 kts | 88° |
| 2026-04-19 04:40 | 25.78725 | -80.28886 | 16 ft | 31 kts | 81° |
| 2026-04-19 04:40 | 25.78796 | -80.28702 | 16 ft | 15 kts | 41° |
| 2026-04-19 04:40 | 25.78830 | -80.28670 | 15 ft | 6 kts | 40° |
| 2026-04-19 04:40 | 25.78863 | -80.28637 | 15 ft | 6 kts | 52° |
| 2026-04-19 04:41 | 25.78876 | -80.28592 | 16 ft | 6 kts | 81° |
| 2026-04-19 04:41 | 25.78880 | -80.28542 | 17 ft | 7 kts | 89° |
| 2026-04-19 04:41 | 25.78882 | -80.28478 | 18 ft | 9 kts | 86° |
| 2026-04-19 04:41 | 25.78886 | -80.28401 | 18 ft | 10 kts | 86° |
| 2026-04-19 04:42 | 25.78890 | -80.28332 | 17 ft | 11 kts | 87° |
| 2026-04-19 04:42 | 25.78892 | -80.28234 | 17 ft | 14 kts | 87° |
| 2026-04-19 04:42 | 25.78901 | -80.28125 | 19 ft | 14 kts | 84° |
| 2026-04-19 04:42 | 25.78911 | -80.28034 | 21 ft | 11 kts | 72° |
| 2026-04-19 04:43 | 25.78940 | -80.27961 | 21 ft | 10 kts | 82° |
| 2026-04-19 04:43 | 25.78940 | -80.27883 | 20 ft | 10 kts | 89° |
| 2026-04-19 04:43 | 25.78982 | -80.27827 | 20 ft | 10 kts | 25° |
| 2026-04-19 04:43 | 25.79045 | -80.27798 | 21 ft | 10 kts | 23° |
| 2026-04-19 04:44 | 25.79108 | -80.27773 | 21 ft | 9 kts | 10° |
| 2026-04-19 04:44 | 25.79160 | -80.27768 | 21 ft | 7 kts | 5° |
| 2026-04-19 04:44 | 25.79192 | -80.27772 | 21 ft | 2 kts | 318° |
| 2026-04-19 04:44 | 25.79196 | -80.27789 | 21 ft | 3 kts | 280° |
| 2026-04-19 04:45 | 25.79201 | -80.27813 | 21 ft | 3 kts | 282° |
| 2026-04-19 04:45 | 25.79202 | -80.27822 | 21 ft | 0 kts | 283° |